Ana Sayfa
METAR-TAF:

METAR-TAF

Havaalanları :

Springbok, Güney Afrika

Enlem: 29-40S, Boylam: 17-53E, yükseklik: 1006 m

Güncel hava durumu gözlemi

Rapor saat 17:48 UTC de 1 saat ve 10 dakika önce yapıldı.
Rüzgar batı/güneybatıdan 15 kt
Sıcaklık 6°C
Nem 93%
Basınç 1023 hPa

METAR: FASB 131748Z AUTO 25015KT //// // ////// 06/05 Q1023

Saat: 20:58 (18:58 UTC)


TAF: eksik

4.000'den fazla havaalanı için hava durumu gözlemleri ve tahminleri (METAR ve TAF raporları).

Kullanılabilir istasyonlar harita üzerinde sarı ve kırmızı noktalarla gösterilir.

İstasyonun adını görmek için fareyi noktanın üzerinde gezdirin.

Sonrasında hava gözlem ve tahminlerini görmek için tıklayın.

Haritayı değiştirmek için: yaklaştırmak için siyah artı işaretli yeşil düğmeye ve uzaklaştırmak için de eksi işaretli düğmeye hızla tıklayın; bitişik haritalar için yeşil okları kullanın.


METAR-TAF: